createdAt,value
2023-02-14T00:00:53.487Z,6.60
2023-02-14T00:03:21.271Z,6.60
2023-02-14T00:05:49.579Z,6.60
2023-02-14T00:08:17.089Z,6.60
2023-02-14T00:10:44.781Z,6.50
2023-02-14T00:13:12.228Z,6.50
2023-02-14T00:15:39.580Z,6.40
2023-02-14T00:18:07.083Z,6.40
2023-02-14T00:20:34.737Z,6.40
2023-02-14T00:23:02.427Z,6.40
2023-02-14T00:25:30.032Z,6.40
2023-02-14T00:27:57.532Z,6.30
2023-02-14T00:30:25.089Z,6.30
2023-02-14T00:32:52.465Z,6.30
2023-02-14T00:35:19.979Z,6.30
2023-02-14T00:37:47.874Z,6.30
2023-02-14T00:40:15.737Z,6.30
2023-02-14T00:42:43.335Z,6.20
2023-02-14T00:45:10.886Z,6.20
2023-02-14T00:47:38.343Z,6.20
2023-02-14T00:50:06.083Z,6.20
2023-02-14T00:52:33.735Z,6.20
2023-02-14T00:55:01.281Z,6.20
2023-02-14T00:57:28.835Z,6.20
2023-02-14T00:59:56.181Z,6.20
2023-02-14T01:02:23.672Z,6.20
2023-02-14T01:04:51.142Z,6.20
2023-02-14T01:07:18.741Z,6.20
2023-02-14T01:09:46.326Z,6.20
2023-02-14T01:12:13.679Z,6.20
2023-02-14T01:14:41.082Z,6.20
2023-02-14T01:17:08.581Z,6.20
2023-02-14T01:19:36.777Z,6.10
2023-02-14T01:22:04.080Z,6.10
2023-02-14T01:24:31.668Z,6.10
2023-02-14T01:26:59.223Z,6.10
2023-02-14T01:29:26.801Z,6.10
2023-02-14T01:31:54.492Z,6.10
2023-02-14T01:34:21.976Z,6.00
2023-02-14T01:36:49.276Z,6.00
2023-02-14T01:39:18.618Z,6.00
2023-02-14T01:41:50.592Z,6.00
2023-02-14T01:44:17.994Z,5.90
2023-02-14T01:46:46.234Z,5.90
2023-02-14T01:49:15.588Z,5.90
2023-02-14T01:52:03.885Z,5.90
2023-02-14T01:54:35.227Z,5.80
2023-02-14T01:57:06.539Z,5.90
2023-02-14T01:59:39.880Z,5.90
2023-02-14T02:02:07.911Z,5.80
2023-02-14T02:04:40.589Z,5.80
2023-02-14T02:07:12.339Z,5.80
2023-02-14T02:09:46.976Z,5.70
2023-02-14T02:12:14.637Z,5.70
2023-02-14T02:14:43.334Z,5.70
2023-02-14T02:17:28.792Z,5.70
2023-02-14T02:19:56.250Z,5.60
2023-02-14T02:22:54.081Z,5.60
2023-02-14T02:25:58.630Z,5.70
2023-02-14T02:28:41.004Z,5.60
2023-02-14T02:31:26.811Z,5.60
2023-02-14T02:34:25.271Z,5.60
2023-02-14T02:37:19.890Z,5.60
2023-02-14T02:40:04.977Z,5.60
2023-02-14T02:42:49.048Z,5.50
2023-02-14T02:46:27.109Z,5.50
2023-02-14T02:49:02.289Z,5.50
2023-02-14T02:52:05.426Z,5.50
2023-02-14T02:54:43.626Z,5.50
2023-02-14T02:57:19.622Z,5.50
2023-02-14T02:59:47.678Z,5.40
2023-02-14T03:02:30.944Z,5.40
2023-02-14T03:05:02.584Z,5.40
2023-02-14T03:07:37.242Z,5.40
2023-02-14T03:10:15.534Z,5.40
2023-02-14T03:13:01.657Z,5.40
2023-02-14T03:16:05.591Z,5.40
2023-02-14T03:19:10.684Z,5.40
2023-02-14T03:21:46.784Z,5.30
2023-02-14T03:24:27.949Z,5.30
2023-02-14T03:27:20.831Z,5.30
2023-02-14T03:29:51.432Z,5.30
2023-02-14T03:32:36.671Z,5.30
2023-02-14T03:35:11.675Z,5.30
2023-02-14T03:37:47.228Z,5.20
2023-02-14T03:40:25.233Z,5.20
2023-02-14T03:43:02.081Z,5.20
2023-02-14T03:45:34.833Z,5.20
2023-02-14T03:48:06.907Z,5.10
2023-02-14T03:50:36.425Z,5.10
2023-02-14T03:53:07.340Z,5.10
2023-02-14T03:56:08.603Z,5.10
2023-02-14T03:58:38.882Z,5.10
2023-02-14T04:01:26.804Z,5.10
2023-02-14T04:03:57.508Z,5.10
2023-02-14T04:06:25.034Z,5.10
2023-02-14T04:08:52.694Z,5.10
2023-02-14T04:11:20.326Z,5.10
2023-02-14T04:13:47.719Z,5.10
2023-02-14T04:16:15.168Z,5.10
2023-02-14T04:19:01.167Z,5.10
2023-02-14T04:21:28.519Z,5.00
2023-02-14T04:23:56.025Z,5.00
2023-02-14T04:26:23.625Z,5.00
2023-02-14T04:28:51.021Z,5.00
2023-02-14T04:31:18.437Z,5.00
2023-02-14T04:33:48.152Z,5.00
2023-02-14T04:36:15.563Z,4.90
2023-02-14T04:38:43.124Z,5.00
2023-02-14T04:41:10.628Z,5.00
2023-02-14T04:43:37.972Z,4.90
2023-02-14T04:46:05.320Z,4.90
2023-02-14T04:48:32.907Z,4.90
2023-02-14T04:51:00.781Z,4.90
2023-02-14T04:53:28.324Z,4.90
2023-02-14T04:55:55.785Z,4.90
2023-02-14T04:58:23.524Z,4.90
2023-02-14T05:00:51.013Z,4.90
2023-02-14T05:03:18.382Z,4.90
2023-02-14T05:05:46.267Z,4.90
2023-02-14T05:08:14.516Z,4.90
2023-02-14T05:10:42.021Z,4.90
2023-02-14T05:13:09.651Z,4.80
2023-02-14T05:15:38.525Z,4.80
2023-02-14T05:18:06.371Z,4.90
2023-02-14T05:20:33.916Z,4.80
2023-02-14T05:23:03.464Z,4.80
2023-02-14T05:25:31.578Z,4.80
2023-02-14T05:27:59.066Z,4.80
2023-02-14T05:30:28.104Z,4.70
2023-02-14T05:32:55.565Z,4.80
2023-02-14T05:35:23.216Z,4.70
2023-02-14T05:37:50.769Z,4.70
2023-02-14T05:40:18.317Z,4.70
2023-02-14T05:42:45.922Z,4.70
2023-02-14T05:45:13.717Z,4.70
2023-02-14T05:47:41.419Z,4.60
2023-02-14T05:50:09.303Z,4.60
2023-02-14T05:52:37.727Z,4.60
2023-02-14T05:55:05.766Z,4.60
2023-02-14T05:57:33.442Z,4.60
2023-02-14T06:00:01.128Z,4.60
2023-02-14T06:02:28.567Z,4.60
2023-02-14T06:04:55.939Z,4.60
2023-02-14T06:07:23.881Z,4.60
2023-02-14T06:09:51.472Z,4.50
2023-02-14T06:12:18.971Z,4.50
2023-02-14T06:14:46.323Z,4.40
2023-02-14T06:17:13.774Z,4.50
2023-02-14T06:19:41.559Z,4.50
2023-02-14T06:22:09.622Z,4.50
2023-02-14T06:24:37.214Z,4.50
2023-02-14T06:27:04.626Z,4.50
2023-02-14T06:29:31.955Z,4.50
2023-02-14T06:32:05.745Z,4.50
2023-02-14T06:34:34.425Z,4.60
2023-02-14T06:37:01.977Z,4.70
2023-02-14T06:39:29.425Z,4.70
2023-02-14T06:41:57.006Z,4.60
2023-02-14T06:44:24.323Z,4.60
2023-02-14T06:46:51.642Z,4.50
2023-02-14T06:49:19.372Z,4.50
2023-02-14T06:51:47.578Z,4.50
2023-02-14T06:54:15.032Z,4.50
2023-02-14T06:56:42.767Z,4.50
2023-02-14T06:59:10.269Z,4.50
2023-02-14T07:01:37.730Z,4.50
2023-02-14T07:04:05.527Z,4.50
2023-02-14T07:06:33.072Z,4.50
2023-02-14T07:09:00.567Z,4.50
2023-02-14T07:11:28.741Z,4.40
2023-02-14T07:13:56.119Z,4.40
2023-02-14T07:16:23.952Z,4.40
2023-02-14T07:18:51.471Z,4.40
2023-02-14T07:21:20.280Z,4.40
2023-02-14T07:23:50.075Z,4.40
2023-02-14T07:26:18.369Z,4.40
2023-02-14T07:28:49.170Z,4.40
2023-02-14T07:31:18.490Z,4.40
2023-02-14T07:33:46.089Z,4.40
2023-02-14T07:36:15.567Z,4.40
2023-02-14T07:38:43.054Z,4.40
2023-02-14T07:41:10.375Z,4.40
2023-02-14T07:43:39.659Z,4.40
2023-02-14T07:46:07.215Z,4.40
2023-02-14T07:48:34.810Z,4.40
2023-02-14T07:51:03.526Z,4.40
2023-02-14T07:53:31.175Z,4.40
2023-02-14T07:55:58.618Z,4.40
2023-02-14T07:58:26.213Z,4.50
2023-02-14T08:00:54.670Z,4.50
2023-02-14T08:03:22.021Z,4.50
2023-02-14T08:05:57.264Z,4.50
2023-02-14T08:08:26.882Z,4.50
2023-02-14T08:10:54.217Z,4.50
2023-02-14T08:13:21.728Z,4.50
2023-02-14T08:16:05.788Z,4.50
2023-02-14T08:18:39.111Z,4.50
2023-02-14T08:21:09.314Z,4.50
2023-02-14T08:23:37.859Z,4.60
2023-02-14T08:26:05.660Z,4.60
2023-02-14T08:28:34.936Z,4.70
2023-02-14T08:31:04.598Z,4.70
2023-02-14T08:33:32.084Z,4.80
2023-02-14T08:35:59.410Z,4.80
2023-02-14T08:38:27.284Z,4.90
2023-02-14T08:40:55.418Z,4.90
2023-02-14T08:43:22.970Z,5.00
2023-02-14T08:45:53.961Z,5.00
2023-02-14T08:48:23.503Z,5.10
2023-02-14T08:50:51.120Z,5.10
2023-02-14T08:53:18.582Z,5.20
2023-02-14T08:55:46.063Z,5.20
2023-02-14T08:58:14.353Z,5.40
2023-02-14T09:00:41.868Z,5.50
2023-02-14T09:03:10.649Z,5.50
2023-02-14T09:05:38.666Z,5.60
2023-02-14T09:08:06.518Z,5.60
2023-02-14T09:10:33.925Z,5.60
2023-02-14T09:13:01.611Z,5.70
2023-02-14T09:15:29.076Z,5.70
2023-02-14T09:17:56.762Z,5.70
2023-02-14T09:20:24.804Z,5.90
2023-02-14T09:22:56.408Z,5.90
2023-02-14T09:25:24.385Z,5.90
2023-02-14T09:27:52.671Z,5.90
2023-02-14T09:30:20.204Z,6.00
2023-02-14T09:32:47.895Z,6.00
2023-02-14T09:35:15.512Z,6.10
2023-02-14T09:37:43.114Z,6.10
2023-02-14T09:40:15.404Z,6.10
2023-02-14T09:43:15.010Z,6.10
2023-02-14T09:45:47.015Z,6.20
2023-02-14T09:48:38.166Z,6.20
2023-02-14T09:51:07.260Z,6.20
2023-02-14T09:53:45.261Z,6.30
2023-02-14T09:56:50.350Z,6.40
2023-02-14T09:59:44.598Z,6.40
2023-02-14T10:02:24.471Z,6.60
2023-02-14T10:05:13.323Z,6.70
2023-02-14T10:08:02.365Z,6.70
2023-02-14T10:10:47.895Z,6.70
2023-02-14T10:13:26.809Z,6.80
2023-02-14T10:16:27.155Z,6.80
2023-02-14T10:19:01.705Z,6.90
2023-02-14T10:21:41.664Z,7.00
2023-02-14T10:24:33.179Z,7.00
2023-02-14T10:27:13.012Z,7.10
2023-02-14T10:29:42.100Z,7.20
2023-02-14T10:32:15.305Z,7.30
2023-02-14T10:34:51.019Z,7.40
2023-02-14T10:37:42.505Z,7.50
2023-02-14T10:40:49.705Z,7.60
2023-02-14T10:43:38.759Z,7.60
2023-02-14T10:46:28.349Z,7.60
2023-02-14T10:48:55.861Z,7.70
2023-02-14T10:51:43.632Z,7.80
2023-02-14T10:54:27.006Z,7.90
2023-02-14T10:57:05.686Z,8.00
2023-02-14T10:59:54.148Z,8.20
2023-02-14T11:02:27.471Z,8.30
2023-02-14T11:04:56.146Z,8.50
2023-02-14T11:07:23.938Z,8.60
2023-02-14T11:09:51.484Z,8.80
2023-02-14T11:12:37.628Z,8.90
2023-02-14T11:15:19.577Z,9.10
2023-02-14T11:17:47.828Z,9.30
2023-02-14T11:20:30.635Z,9.50
2023-02-14T11:22:58.456Z,9.60
2023-02-14T11:25:32.257Z,9.80
2023-02-14T11:28:04.509Z,9.80
2023-02-14T11:30:41.052Z,9.90
2023-02-14T11:33:30.913Z,9.90
2023-02-14T11:35:59.357Z,9.90
2023-02-14T11:38:38.359Z,10.00
2023-02-14T11:41:10.156Z,10.00
2023-02-14T11:43:45.502Z,10.00
2023-02-14T11:46:21.115Z,10.20
2023-02-14T11:48:58.007Z,10.20
2023-02-14T11:51:33.860Z,10.40
2023-02-14T11:54:06.347Z,10.40
2023-02-14T11:56:56.630Z,10.50
2023-02-14T11:59:49.553Z,10.50
2023-02-14T12:02:37.765Z,10.60
2023-02-14T12:05:08.466Z,10.60
2023-02-14T12:07:38.205Z,10.60
2023-02-14T12:10:17.609Z,10.60
2023-02-14T12:12:54.920Z,10.80
2023-02-14T12:15:40.336Z,10.90
2023-02-14T12:18:37.610Z,10.90
2023-02-14T12:21:36.660Z,11.00
2023-02-14T12:24:32.398Z,11.10
2023-02-14T12:27:33.216Z,11.20
2023-02-14T12:30:35.262Z,11.20
2023-02-14T12:33:05.003Z,11.40
2023-02-14T12:35:57.611Z,11.80
2023-02-14T12:39:06.322Z,12.40
2023-02-14T12:41:49.089Z,13.00
2023-02-14T12:44:28.503Z,13.70
2023-02-14T12:47:05.449Z,14.00
2023-02-14T12:50:14.298Z,14.40
2023-02-14T12:53:16.706Z,14.70
2023-02-14T12:56:10.803Z,14.70
2023-02-14T12:58:47.253Z,14.90
2023-02-14T13:01:38.579Z,15.00
2023-02-14T13:04:44.142Z,15.30
2023-02-14T13:07:38.174Z,15.60
2023-02-14T13:10:24.055Z,16.10
2023-02-14T13:13:12.272Z,16.20
2023-02-14T13:15:52.993Z,16.30
2023-02-14T13:18:43.103Z,16.50
2023-02-14T13:21:14.453Z,16.40
2023-02-14T13:23:46.609Z,16.10
2023-02-14T13:26:27.295Z,16.20
2023-02-14T13:29:14.447Z,16.40
2023-02-14T13:31:42.673Z,16.60
2023-02-14T13:34:31.786Z,16.70
2023-02-14T13:37:02.624Z,16.90
2023-02-14T13:39:52.297Z,16.90
2023-02-14T13:42:50.550Z,17.00
2023-02-14T13:45:32.636Z,17.10
2023-02-14T13:48:19.798Z,17.20
2023-02-14T13:50:52.994Z,17.30
2023-02-14T13:53:37.445Z,17.20
2023-02-14T13:56:27.022Z,17.30
2023-02-14T13:59:00.513Z,17.20
2023-02-14T14:01:30.606Z,17.20
2023-02-14T14:04:02.277Z,17.10
2023-02-14T14:06:30.254Z,16.40
2023-02-14T14:08:58.042Z,15.90
2023-02-14T14:11:25.552Z,15.40
2023-02-14T14:14:21.257Z,14.80
2023-02-14T14:17:00.118Z,14.30
2023-02-14T14:19:27.787Z,13.80
2023-02-14T14:22:04.633Z,13.70
2023-02-14T14:24:34.807Z,13.40
2023-02-14T14:27:07.805Z,13.20
2023-02-14T14:29:39.234Z,13.10
2023-02-14T14:32:29.559Z,13.10
2023-02-14T14:35:03.705Z,13.00
2023-02-14T14:37:47.345Z,13.00
2023-02-14T14:40:34.996Z,12.90
2023-02-14T14:43:13.368Z,12.90
2023-02-14T14:45:41.886Z,12.90
2023-02-14T14:48:18.283Z,12.80
2023-02-14T14:50:47.193Z,12.80
2023-02-14T14:53:26.046Z,12.90
2023-02-14T14:55:54.914Z,13.00
2023-02-14T14:58:35.625Z,13.00
2023-02-14T15:01:03.963Z,13.00
2023-02-14T15:03:31.580Z,13.00
2023-02-14T15:06:20.794Z,12.90
2023-02-14T15:08:49.796Z,13.00
2023-02-14T15:11:41.050Z,12.90
2023-02-14T15:14:15.673Z,12.90
2023-02-14T15:16:51.907Z,12.90
2023-02-14T15:19:26.759Z,12.90
2023-02-14T15:21:54.397Z,12.90
2023-02-14T15:24:22.047Z,12.80
2023-02-14T15:26:51.589Z,12.90
2023-02-14T15:29:24.663Z,12.90
2023-02-14T15:31:53.303Z,12.80
2023-02-14T15:34:24.497Z,12.80
2023-02-14T15:36:54.025Z,12.80
2023-02-14T15:39:25.919Z,12.90
2023-02-14T15:41:55.536Z,12.80
2023-02-14T15:44:25.348Z,12.70
2023-02-14T15:46:59.575Z,12.60
2023-02-14T15:49:36.716Z,12.50
2023-02-14T15:52:06.392Z,12.50
2023-02-14T15:54:38.154Z,12.50
2023-02-14T15:57:17.200Z,12.60
2023-02-14T15:59:44.645Z,12.70
2023-02-14T16:02:23.775Z,12.70
2023-02-14T16:04:51.293Z,12.70
2023-02-14T16:07:28.549Z,12.60
2023-02-14T16:10:20.540Z,12.60
2023-02-14T16:13:20.296Z,12.50
2023-02-14T16:16:20.292Z,12.50
2023-02-14T16:18:50.096Z,12.50
2023-02-14T16:21:21.508Z,12.40
2023-02-14T16:24:10.911Z,12.40
2023-02-14T16:26:41.082Z,12.30
2023-02-14T16:29:14.795Z,12.30
2023-02-14T16:32:01.204Z,12.30
2023-02-14T16:34:34.740Z,12.30
2023-02-14T16:37:08.698Z,12.50
2023-02-14T16:39:38.586Z,12.50
2023-02-14T16:42:06.331Z,12.50
2023-02-14T16:44:33.832Z,12.40
2023-02-14T16:47:02.346Z,12.30
2023-02-14T16:49:30.144Z,12.30
2023-02-14T16:51:57.680Z,12.20
2023-02-14T16:54:26.798Z,12.10
2023-02-14T16:57:03.189Z,12.00
2023-02-14T16:59:31.482Z,11.90
2023-02-14T17:01:59.786Z,11.90
2023-02-14T17:04:27.185Z,11.80
2023-02-14T17:06:57.486Z,11.70
2023-02-14T17:09:29.751Z,11.60
2023-02-14T17:12:03.482Z,11.40
2023-02-14T17:14:36.862Z,11.30
2023-02-14T17:17:04.539Z,11.30
2023-02-14T17:19:33.239Z,11.20
2023-02-14T17:22:00.937Z,11.10
2023-02-14T17:24:28.475Z,11.10
2023-02-14T17:26:56.089Z,11.10
2023-02-14T17:29:23.436Z,11.00
2023-02-14T17:31:50.828Z,10.90
2023-02-14T17:34:18.392Z,10.80
2023-02-14T17:36:45.951Z,10.70
2023-02-14T17:39:14.847Z,10.60
2023-02-14T17:41:42.180Z,10.60
2023-02-14T17:44:09.687Z,10.60
2023-02-14T17:46:37.050Z,10.60
2023-02-14T17:49:04.480Z,10.50
2023-02-14T17:51:32.097Z,10.50
2023-02-14T17:53:59.592Z,10.40
2023-02-14T17:56:27.287Z,10.40
2023-02-14T17:58:55.424Z,10.30
2023-02-14T18:01:28.524Z,10.30
2023-02-14T18:03:55.998Z,10.30
2023-02-14T18:06:24.136Z,10.30
2023-02-14T18:08:57.011Z,10.30
2023-02-14T18:11:27.039Z,10.30
2023-02-14T18:13:55.937Z,10.30
2023-02-14T18:16:24.888Z,10.20
2023-02-14T18:18:52.386Z,10.20
2023-02-14T18:21:21.142Z,10.20
2023-02-14T18:23:48.715Z,10.20
2023-02-14T18:26:18.139Z,10.10
2023-02-14T18:28:45.990Z,10.10
2023-02-14T18:31:16.372Z,10.10
2023-02-14T18:33:44.584Z,10.00
2023-02-14T18:36:16.579Z,10.00
2023-02-14T18:38:46.085Z,10.00
2023-02-14T18:41:16.334Z,9.90
2023-02-14T18:43:44.661Z,9.80
2023-02-14T18:46:15.116Z,9.80
2023-02-14T18:48:42.534Z,9.70
2023-02-14T18:51:12.331Z,9.60
2023-02-14T18:53:41.069Z,9.70
2023-02-14T18:56:12.216Z,9.60
2023-02-14T18:58:40.923Z,9.60
2023-02-14T19:01:16.620Z,9.50
2023-02-14T19:03:44.795Z,9.40
2023-02-14T19:06:13.112Z,9.40
2023-02-14T19:08:41.172Z,9.30
2023-02-14T19:11:14.328Z,9.30
2023-02-14T19:13:49.999Z,9.30
2023-02-14T19:16:24.541Z,9.30
2023-02-14T19:18:53.894Z,9.20
2023-02-14T19:21:24.328Z,9.20
2023-02-14T19:23:54.093Z,9.20
2023-02-14T19:26:23.137Z,9.10
2023-02-14T19:28:55.834Z,9.10
2023-02-14T19:31:24.271Z,9.00
2023-02-14T19:33:52.579Z,9.00
2023-02-14T19:36:22.325Z,8.90
2023-02-14T19:38:52.506Z,8.90
2023-02-14T19:41:30.292Z,8.90
2023-02-14T19:43:59.039Z,8.80
2023-02-14T19:46:28.175Z,8.80
2023-02-14T19:48:57.290Z,8.80
2023-02-14T19:51:33.915Z,8.70
2023-02-14T19:54:07.209Z,8.70
2023-02-14T19:56:37.972Z,8.60
2023-02-14T19:59:09.982Z,8.60
2023-02-14T20:01:40.125Z,8.60
2023-02-14T20:04:10.339Z,8.60
2023-02-14T20:06:38.452Z,8.60
2023-02-14T20:09:06.769Z,8.50
2023-02-14T20:11:41.528Z,8.50
2023-02-14T20:14:09.698Z,8.40
2023-02-14T20:16:37.949Z,8.40
2023-02-14T20:19:08.925Z,8.30
2023-02-14T20:21:36.363Z,8.30
2023-02-14T20:24:05.490Z,8.30
2023-02-14T20:26:34.472Z,8.20
2023-02-14T20:29:04.299Z,8.20
2023-02-14T20:31:35.117Z,8.20
2023-02-14T20:34:03.515Z,8.10
2023-02-14T20:36:31.871Z,8.10
2023-02-14T20:39:02.743Z,8.10
2023-02-14T20:41:34.435Z,8.00
2023-02-14T20:44:05.264Z,8.00
2023-02-14T20:46:33.973Z,8.00
2023-02-14T20:49:02.126Z,8.00
2023-02-14T20:51:29.836Z,8.00
2023-02-14T20:53:57.427Z,8.00
2023-02-14T20:56:25.071Z,8.00
2023-02-14T20:58:53.037Z,7.90
2023-02-14T21:01:23.844Z,7.90
2023-02-14T21:03:53.327Z,7.90
2023-02-14T21:06:23.479Z,7.90
2023-02-14T21:08:51.826Z,7.90
2023-02-14T21:11:21.032Z,7.90
2023-02-14T21:13:49.113Z,7.80
2023-02-14T21:16:19.196Z,7.80
2023-02-14T21:18:52.849Z,7.80
2023-02-14T21:21:22.982Z,7.70
2023-02-14T21:23:52.373Z,7.70
2023-02-14T21:26:21.379Z,7.80
2023-02-14T21:28:50.343Z,7.70
2023-02-14T21:31:22.033Z,7.70
2023-02-14T21:33:54.639Z,7.60
2023-02-14T21:36:24.477Z,7.60
2023-02-14T21:38:52.474Z,7.60
2023-02-14T21:41:23.069Z,7.50
2023-02-14T21:43:53.427Z,7.50
2023-02-14T21:46:27.418Z,7.50
2023-02-14T21:49:15.884Z,7.50
2023-02-14T21:51:45.060Z,7.50
2023-02-14T21:54:13.481Z,7.50
2023-02-14T21:56:43.951Z,7.50
2023-02-14T21:59:12.029Z,7.40
2023-02-14T22:01:42.252Z,7.40
2023-02-14T22:04:12.706Z,7.40
2023-02-14T22:06:41.810Z,7.40
2023-02-14T22:09:12.388Z,7.30
2023-02-14T22:11:40.435Z,7.30
2023-02-14T22:14:08.478Z,7.30
2023-02-14T22:16:39.399Z,7.30
2023-02-14T22:19:07.936Z,7.30
2023-02-14T22:21:35.679Z,7.30
2023-02-14T22:24:04.425Z,7.20
2023-02-14T22:26:35.479Z,7.20
2023-02-14T22:29:05.156Z,7.20
2023-02-14T22:31:36.432Z,7.30
2023-02-14T22:34:06.018Z,7.50
2023-02-14T22:36:35.285Z,7.50
2023-02-14T22:39:03.420Z,7.40
2023-02-14T22:41:30.941Z,7.40
2023-02-14T22:43:58.480Z,7.30
2023-02-14T22:46:28.401Z,7.20
2023-02-14T22:48:57.202Z,7.10
2023-02-14T22:51:39.311Z,7.10
2023-02-14T22:54:16.340Z,7.00
2023-02-14T22:56:46.656Z,7.00
2023-02-14T22:59:17.080Z,7.00
2023-02-14T23:01:45.315Z,7.00
2023-02-14T23:04:13.088Z,7.00
2023-02-14T23:06:40.765Z,6.90
2023-02-14T23:09:10.258Z,6.90
2023-02-14T23:11:40.536Z,6.90
2023-02-14T23:14:27.473Z,6.90
2023-02-14T23:17:13.371Z,6.90
2023-02-14T23:19:59.801Z,7.00
2023-02-14T23:22:30.239Z,6.90
2023-02-14T23:25:00.679Z,6.90
2023-02-14T23:27:38.044Z,6.90
2023-02-14T23:30:07.716Z,6.90
2023-02-14T23:32:35.818Z,6.90
2023-02-14T23:35:03.568Z,6.90
2023-02-14T23:37:31.266Z,6.90
2023-02-14T23:39:59.014Z,6.90
2023-02-14T23:42:26.683Z,6.90
2023-02-14T23:44:54.086Z,6.90
2023-02-14T23:47:21.375Z,6.90
2023-02-14T23:49:48.895Z,6.80
2023-02-14T23:52:16.608Z,6.80
2023-02-14T23:54:44.375Z,6.80
2023-02-14T23:57:12.054Z,6.80
2023-02-14T23:59:39.728Z,6.80
